Airfield :
LOGIN :

Register | Disclaimer

   EN    FR    IT 

 










Legend :    VFR   Marginal VFR   IFR   Intensive IFR   Very Intensive IFR
Visi :
Ceiling :
>= 8 km
>= 3000ft
5 to 8 km
1000 to 3000 ft
1500m to 5 km
500 to 1000 ft
800 to 1500m
200 to 500 ft
< 800m
< 200 ft
Symbols :   Thunderstorms  Fog  Heavy snow  Heavy precipitations  Wind > 20 kt
SIGMETs :     Misc.  Thunderstorms  Icing  Turbulence  Mountain Waves  Volcanic Ashes






- Airport Elevation : 257 ft
- IATA code : MAN


EGCC - Manchester

CURRENT METAR :
  • 192250Z AUTO 14006KT 080V230 9999 SCT048 06/04 Q1012 NOSIG

EXPIRED METARs :
  • 192220Z AUTO VRB05KT 9999 FEW049 06/04 Q1012
  • 192150Z AUTO VRB06KT 9999 FEW031 BKN047 06/04 Q1013
  • 192120Z AUTO 13005KT 090V180 9999 SCT048 06/04 Q1013 NOSIG
  • 192050Z AUTO 15006KT 090V230 9999 NCD 06/04 Q1013 NOSIG
  • 192020Z AUTO 16006KT 100V220 9999 NCD 06/04 Q1013 NOSIG

TAF TAF EGCC
Valid from the 19 at 18:00 until the 21 at 00:00 UTC


191703Z 1918/2024 13005KT 9999 FEW035
PROB40 1918/2011 8000
TEMPO 2000/2015 14015G25KT
ATIS : +44 161 499 2324



MET'MAP, your aeronautical weather chart ! - Copyright ORBIFLY December 2007 - Disclaimer

ORBIFLY MET'MAP TEAM :

Programming & Development : Alexandra Zaïnal
Concept & Development : Baudouin d'Aumeries
Co-Development & Prog : Marc-Olivier Méhu
Technical & hardware support : Manuel Goepfert

Contact : metmap@orbifly.com




SOURCES & CREDITS :

   NOAA